createdAt,value
2022-09-12T00:00:46.072Z,21.85
2022-09-12T00:03:53.468Z,22.29
2022-09-12T00:06:56.690Z,22.17
2022-09-12T00:10:00.034Z,21.95
2022-09-12T00:13:03.266Z,22.14
2022-09-12T00:16:07.885Z,22.35
2022-09-12T00:19:13.549Z,22.24
2022-09-12T00:22:16.849Z,22.17
2022-09-12T00:25:20.201Z,21.45
2022-09-12T00:28:23.487Z,21.78
2022-09-12T00:31:28.054Z,21.63
2022-09-12T00:34:32.901Z,21.59
2022-09-12T00:37:36.497Z,21.84
2022-09-12T00:40:40.101Z,21.60
2022-09-12T00:43:45.224Z,21.67
2022-09-12T00:46:52.030Z,21.14
2022-09-12T00:50:02.741Z,21.09
2022-09-12T00:53:09.365Z,21.45
2022-09-12T00:56:14.797Z,21.64
2022-09-12T00:59:21.308Z,21.70
2022-09-12T01:02:25.131Z,21.49
2022-09-12T01:05:32.651Z,21.54
2022-09-12T01:08:38.413Z,21.37
2022-09-12T01:11:42.302Z,21.91
2022-09-12T01:14:45.632Z,21.57
2022-09-12T01:18:01.671Z,21.07
2022-09-12T01:21:15.884Z,21.52
2022-09-12T01:24:53.189Z,21.52
2022-09-12T01:28:22.748Z,21.83
2022-09-12T01:31:33.901Z,21.78
2022-09-12T01:34:44.784Z,21.59
2022-09-12T01:37:58.777Z,21.83
2022-09-12T01:41:12.464Z,21.69
2022-09-12T01:44:25.444Z,21.36
2022-09-12T01:47:38.332Z,21.26
2022-09-12T01:50:47.924Z,21.42
2022-09-12T01:53:55.840Z,21.40
2022-09-12T01:57:05.371Z,21.36
2022-09-12T02:00:12.501Z,21.51
2022-09-12T02:03:24.306Z,20.99
2022-09-12T02:06:32.407Z,21.34
2022-09-12T02:09:39.092Z,21.35
2022-09-12T02:12:47.779Z,20.98
2022-09-12T02:15:54.620Z,20.86
2022-09-12T02:19:05.715Z,20.65
2022-09-12T02:22:13.884Z,20.54
2022-09-12T02:25:20.798Z,20.66
2022-09-12T02:28:29.346Z,20.31
2022-09-12T02:31:40.471Z,20.34
2022-09-12T02:34:49.534Z,20.88
2022-09-12T02:38:01.017Z,20.69
2022-09-12T02:41:04.314Z,20.51
2022-09-12T02:44:07.902Z,20.78
2022-09-12T02:47:16.409Z,20.61
2022-09-12T02:50:21.437Z,20.77
2022-09-12T02:53:24.836Z,20.46
2022-09-12T02:56:32.124Z,20.30
2022-09-12T02:59:35.420Z,20.49
2022-09-12T03:03:00.040Z,20.38
2022-09-12T03:06:11.335Z,20.60
2022-09-12T03:09:21.523Z,20.48
2022-09-12T03:12:40.987Z,20.88
2022-09-12T03:15:54.860Z,20.63
2022-09-12T03:19:08.075Z,20.56
2022-09-12T03:22:20.185Z,20.91
2022-09-12T03:25:29.837Z,20.31
2022-09-12T03:28:35.896Z,20.47
2022-09-12T03:31:39.507Z,20.38
2022-09-12T03:34:42.801Z,20.01
2022-09-12T03:37:48.309Z,20.31
2022-09-12T03:40:54.891Z,20.25
2022-09-12T03:43:58.381Z,20.29
2022-09-12T03:47:01.616Z,20.30
2022-09-12T03:50:06.559Z,20.05
2022-09-12T03:53:14.081Z,20.20
2022-09-12T03:56:20.365Z,20.20
2022-09-12T03:59:23.687Z,20.24
2022-09-12T04:02:26.929Z,19.77
2022-09-12T04:05:30.321Z,20.30
2022-09-12T04:08:35.271Z,20.01
2022-09-12T04:11:38.544Z,19.94
2022-09-12T04:14:42.326Z,19.94
2022-09-12T04:17:45.584Z,20.09
2022-09-12T04:20:56.651Z,20.18
2022-09-12T04:23:59.870Z,20.32
2022-09-12T04:27:07.632Z,20.15
2022-09-12T04:30:12.016Z,19.96
2022-09-12T04:33:15.547Z,19.96
2022-09-12T04:36:20.392Z,20.17
2022-09-12T04:39:23.644Z,20.30
2022-09-12T04:42:26.880Z,20.04
2022-09-12T04:45:30.144Z,20.01
2022-09-12T04:48:33.468Z,19.91
2022-09-12T04:51:40.897Z,20.11
2022-09-12T04:54:44.115Z,20.35
2022-09-12T04:57:47.383Z,20.49
2022-09-12T05:00:50.534Z,20.04
2022-09-12T05:03:53.796Z,20.13
2022-09-12T05:06:58.744Z,20.07
2022-09-12T05:10:03.118Z,20.34
2022-09-12T05:13:06.290Z,20.44
2022-09-12T05:16:12.740Z,20.55
2022-09-12T05:19:15.946Z,20.91
2022-09-12T05:22:20.688Z,21.05
2022-09-12T05:25:23.884Z,20.75
2022-09-12T05:28:31.335Z,21.29
2022-09-12T05:31:34.804Z,21.21
2022-09-12T05:34:38.723Z,21.82
2022-09-12T05:37:44.212Z,22.27
2022-09-12T05:40:48.336Z,22.72
2022-09-12T05:43:55.550Z,22.55
2022-09-12T05:46:58.800Z,22.26
2022-09-12T05:50:02.012Z,22.34
2022-09-12T05:53:06.548Z,23.32
2022-09-12T05:56:11.303Z,23.31
2022-09-12T05:59:16.406Z,23.99
2022-09-12T06:02:19.681Z,23.71
2022-09-12T06:05:22.974Z,23.35
2022-09-12T06:08:27.609Z,23.56
2022-09-12T06:11:33.385Z,24.13
2022-09-12T06:14:36.627Z,24.25
2022-09-12T06:17:39.926Z,24.27
2022-09-12T06:20:44.031Z,23.75
2022-09-12T06:23:50.197Z,23.90
2022-09-12T06:26:54.273Z,24.22
2022-09-12T06:29:58.523Z,24.30
2022-09-12T06:33:03.006Z,24.68
2022-09-12T06:36:12.206Z,24.87
2022-09-12T06:39:20.094Z,25.18
2022-09-12T06:42:24.872Z,24.83
2022-09-12T06:45:34.535Z,24.86
2022-09-12T06:48:41.918Z,24.09
2022-09-12T06:51:46.506Z,24.07
2022-09-12T06:54:51.853Z,23.98
2022-09-12T06:57:56.089Z,24.86
2022-09-12T07:01:03.823Z,24.97
2022-09-12T07:04:07.889Z,24.53
2022-09-12T07:07:11.360Z,24.72
2022-09-12T07:10:21.639Z,25.51
2022-09-12T07:13:25.534Z,25.12
2022-09-12T07:16:29.187Z,25.40
2022-09-12T07:19:32.605Z,25.44
2022-09-12T07:22:35.828Z,25.73
2022-09-12T07:25:41.779Z,25.80
2022-09-12T07:28:46.910Z,25.72
2022-09-12T07:31:50.292Z,26.00
2022-09-12T07:34:53.611Z,26.21
2022-09-12T07:37:56.784Z,26.36
2022-09-12T07:41:01.946Z,25.87
2022-09-12T07:44:06.741Z,26.29
2022-09-12T07:47:10.036Z,25.94
2022-09-12T07:50:13.256Z,26.12
2022-09-12T07:53:16.435Z,26.32
2022-09-12T07:56:26.135Z,26.63
2022-09-12T07:59:51.266Z,26.40
2022-09-12T08:02:56.694Z,26.54
2022-09-12T08:06:05.046Z,27.13
2022-09-12T08:09:08.956Z,27.37
2022-09-12T08:12:13.525Z,27.29
2022-09-12T08:15:17.716Z,26.91
2022-09-12T08:18:20.960Z,27.02
2022-09-12T08:21:25.409Z,27.25
2022-09-12T08:24:28.608Z,27.38
2022-09-12T08:27:33.194Z,27.71
2022-09-12T08:30:36.444Z,26.99
2022-09-12T08:33:39.936Z,27.46
2022-09-12T08:36:43.317Z,27.29
2022-09-12T08:39:46.852Z,28.07
2022-09-12T08:42:58.922Z,27.96
2022-09-12T08:46:10.781Z,27.16
2022-09-12T08:49:19.198Z,27.59
2022-09-12T08:52:28.915Z,27.93
2022-09-12T08:55:35.417Z,27.62
2022-09-12T08:58:42.222Z,28.24
2022-09-12T09:01:46.775Z,27.62
2022-09-12T09:04:53.912Z,27.28
2022-09-12T09:08:24.010Z,28.25
2022-09-12T09:11:38.727Z,28.33
2022-09-12T09:14:57.739Z,28.08
2022-09-12T09:18:06.521Z,28.45
2022-09-12T09:21:21.349Z,28.12
2022-09-12T09:24:29.184Z,28.93
2022-09-12T09:27:41.000Z,28.56
2022-09-12T09:30:46.563Z,29.28
2022-09-12T09:33:52.050Z,29.71
2022-09-12T09:37:03.926Z,29.23
2022-09-12T09:40:18.706Z,28.77
2022-09-12T09:43:24.141Z,28.67
2022-09-12T09:46:29.273Z,29.14
2022-09-12T09:49:35.651Z,28.42
2022-09-12T09:52:39.671Z,28.83
2022-09-12T09:55:44.599Z,29.40
2022-09-12T09:58:47.989Z,29.66
2022-09-12T10:01:55.101Z,29.25
2022-09-12T10:04:59.890Z,29.50
2022-09-12T10:08:11.561Z,29.13
2022-09-12T10:11:22.390Z,29.31
2022-09-12T10:14:31.817Z,29.26
2022-09-12T10:17:45.496Z,29.34
2022-09-12T10:20:48.790Z,29.74
2022-09-12T10:24:00.483Z,29.57
2022-09-12T10:27:16.211Z,29.32
2022-09-12T10:30:21.964Z,29.08
2022-09-12T10:33:27.810Z,28.77
2022-09-12T10:36:38.588Z,28.77
2022-09-12T10:39:42.722Z,29.65
2022-09-12T10:42:51.428Z,29.27
2022-09-12T10:45:58.811Z,29.79
2022-09-12T10:49:22.874Z,29.66
2022-09-12T10:52:27.449Z,29.66
2022-09-12T10:55:36.233Z,29.98
2022-09-12T10:59:04.235Z,28.82
2022-09-12T11:02:20.272Z,29.14
2022-09-12T11:05:39.155Z,29.03
2022-09-12T11:09:07.466Z,29.53
2022-09-12T11:12:19.280Z,29.48
2022-09-12T11:15:41.596Z,29.71
2022-09-12T11:19:05.205Z,30.01
2022-09-12T11:22:29.905Z,29.19
2022-09-12T11:25:46.543Z,28.87
2022-09-12T11:29:02.541Z,29.62
2022-09-12T11:32:24.701Z,29.65
2022-09-12T11:35:29.970Z,28.77
2022-09-12T11:38:52.211Z,28.87
2022-09-12T11:41:59.534Z,28.96
2022-09-12T11:45:11.492Z,29.29
2022-09-12T11:48:29.799Z,28.57
2022-09-12T11:51:38.382Z,28.89
2022-09-12T11:54:52.848Z,28.81
2022-09-12T11:57:59.099Z,28.60
2022-09-12T12:01:12.821Z,29.14
2022-09-12T12:04:22.175Z,29.24
2022-09-12T12:07:25.321Z,29.95
2022-09-12T12:10:37.996Z,29.66
2022-09-12T12:13:46.780Z,29.30
2022-09-12T12:16:51.079Z,28.93
2022-09-12T12:20:04.949Z,28.52
2022-09-12T12:23:24.441Z,28.39
2022-09-12T12:29:55.985Z,28.20
2022-09-12T12:33:01.172Z,28.47
2022-09-12T12:36:07.292Z,29.22
2022-09-12T12:39:48.306Z,29.30
2022-09-12T12:43:00.296Z,29.03
2022-09-12T12:46:08.437Z,29.70
2022-09-12T12:49:20.022Z,29.85
2022-09-12T12:52:24.508Z,30.19
2022-09-12T12:55:33.324Z,30.36
2022-09-12T12:58:39.631Z,29.20
2022-09-12T13:01:54.737Z,28.80
2022-09-12T13:05:01.171Z,28.19
2022-09-12T13:08:11.316Z,28.10
2022-09-12T13:11:18.747Z,27.99
2022-09-12T13:14:50.124Z,27.87
2022-09-12T13:17:55.048Z,27.55
2022-09-12T13:21:10.085Z,27.73
2022-09-12T13:24:18.629Z,27.68
2022-09-12T13:27:23.626Z,27.47
2022-09-12T13:30:28.573Z,27.31
2022-09-12T13:33:38.428Z,27.21
2022-09-12T13:37:06.720Z,27.13
2022-09-12T13:40:27.160Z,27.89
2022-09-12T13:43:39.110Z,28.51
2022-09-12T13:46:42.986Z,28.78
2022-09-12T13:49:48.054Z,28.62
2022-09-12T13:52:54.390Z,28.95
2022-09-12T13:56:00.548Z,29.06
2022-09-12T13:59:04.360Z,28.90
2022-09-12T14:02:19.896Z,28.83
2022-09-12T14:05:26.429Z,28.52
2022-09-12T14:08:30.348Z,28.36
2022-09-12T14:11:34.976Z,28.23
2022-09-12T14:14:42.236Z,28.40
2022-09-12T14:17:52.302Z,28.56
2022-09-12T14:21:00.947Z,28.57
2022-09-12T14:24:08.663Z,28.26
2022-09-12T14:27:13.164Z,28.30
2022-09-12T14:30:24.425Z,27.79
2022-09-12T14:33:27.782Z,27.65
2022-09-12T14:36:36.685Z,27.56
2022-09-12T14:39:44.345Z,27.51
2022-09-12T14:42:51.247Z,27.29
2022-09-12T14:45:57.443Z,26.78
2022-09-12T14:49:08.135Z,26.65
2022-09-12T14:52:28.861Z,26.62
2022-09-12T14:55:33.780Z,26.42
2022-09-12T14:58:38.103Z,26.39
2022-09-12T15:01:41.304Z,26.83
2022-09-12T15:04:47.491Z,27.45
2022-09-12T15:07:58.176Z,27.79
2022-09-12T15:11:01.687Z,27.58
2022-09-12T15:14:08.390Z,27.40
2022-09-12T15:17:11.638Z,27.03
2022-09-12T15:20:15.792Z,26.86
2022-09-12T15:23:36.037Z,26.32
2022-09-12T15:26:39.329Z,26.45
2022-09-12T15:29:42.797Z,26.35
2022-09-12T15:32:46.851Z,26.00
2022-09-12T15:35:50.604Z,25.98
2022-09-12T15:38:55.293Z,25.79
2022-09-12T15:41:58.983Z,26.00
2022-09-12T15:45:02.921Z,25.88
2022-09-12T15:48:06.384Z,25.73
2022-09-12T15:51:15.429Z,25.78
2022-09-12T15:54:22.377Z,25.80
2022-09-12T15:57:25.847Z,25.59
2022-09-12T16:00:29.058Z,25.94
2022-09-12T16:03:33.160Z,26.03
2022-09-12T16:06:37.535Z,25.38
2022-09-12T16:09:42.333Z,25.60
2022-09-12T16:12:46.913Z,25.54
2022-09-12T16:15:50.178Z,25.43
2022-09-12T16:18:53.512Z,25.47
2022-09-12T16:21:56.703Z,25.24
2022-09-12T16:25:01.307Z,25.42
2022-09-12T16:28:05.832Z,25.11
2022-09-12T16:31:11.760Z,25.22
2022-09-12T16:34:15.245Z,25.22
2022-09-12T16:37:18.520Z,25.25
2022-09-12T16:40:23.625Z,25.19
2022-09-12T16:43:27.724Z,25.02
2022-09-12T16:46:31.122Z,25.05
2022-09-12T16:49:34.705Z,24.87
2022-09-12T16:52:37.929Z,24.88
2022-09-12T16:55:49.871Z,24.73
2022-09-12T16:58:53.283Z,24.66
2022-09-12T17:01:56.527Z,24.53
2022-09-12T17:04:59.804Z,24.33
2022-09-12T17:08:03.456Z,24.44
2022-09-12T17:11:10.247Z,24.43
2022-09-12T17:14:13.583Z,24.27
2022-09-12T17:17:16.794Z,24.48
2022-09-12T17:20:20.028Z,24.46
2022-09-12T17:23:23.705Z,24.27
2022-09-12T17:26:29.200Z,23.79
2022-09-12T17:29:32.389Z,23.83
2022-09-12T17:32:35.632Z,23.76
2022-09-12T17:35:42.542Z,24.06
2022-09-12T17:38:47.840Z,23.91
2022-09-12T17:41:54.650Z,23.82
2022-09-12T17:44:58.542Z,23.62
2022-09-12T17:48:02.110Z,23.47
2022-09-12T17:51:09.389Z,23.50
2022-09-12T17:54:14.135Z,23.41
2022-09-12T17:57:18.761Z,23.59
2022-09-12T18:00:42.621Z,23.47
2022-09-12T18:03:46.074Z,23.36
2022-09-12T18:06:49.877Z,23.52
2022-09-12T18:09:53.591Z,23.69
2022-09-12T18:12:58.873Z,23.35
2022-09-12T18:16:05.291Z,23.33
2022-09-12T18:19:08.559Z,23.42
2022-09-12T18:22:11.811Z,23.45
2022-09-12T18:25:15.157Z,23.27
2022-09-12T18:28:19.866Z,23.23
2022-09-12T18:31:25.519Z,22.81
2022-09-12T18:34:29.055Z,22.99
2022-09-12T18:37:33.139Z,22.84
2022-09-12T18:40:36.702Z,22.86
2022-09-12T18:43:41.734Z,22.98
2022-09-12T18:46:45.863Z,22.69
2022-09-12T18:49:49.423Z,23.05
2022-09-12T18:52:59.022Z,23.12
2022-09-12T18:56:04.568Z,22.77
2022-09-12T18:59:09.238Z,22.73
2022-09-12T19:02:16.910Z,22.62
2022-09-12T19:05:20.089Z,22.52
2022-09-12T19:08:23.700Z,22.79
2022-09-12T19:11:28.243Z,22.86
2022-09-12T19:14:32.955Z,22.57
2022-09-12T19:17:36.153Z,22.45
2022-09-12T19:20:39.523Z,22.43
2022-09-12T19:23:42.942Z,22.42
2022-09-12T19:26:46.307Z,22.35
2022-09-12T19:29:50.953Z,22.67
2022-09-12T19:32:54.136Z,22.06
2022-09-12T19:35:57.317Z,22.54
2022-09-12T19:39:01.202Z,22.22
2022-09-12T19:42:04.414Z,22.36
2022-09-12T19:45:16.471Z,22.11
2022-09-12T19:48:20.170Z,22.17
2022-09-12T19:51:24.485Z,21.96
2022-09-12T19:54:27.632Z,22.09
2022-09-12T19:57:31.167Z,22.38
2022-09-12T20:00:37.048Z,22.19
2022-09-12T20:03:41.044Z,22.36
2022-09-12T20:06:44.906Z,22.09
2022-09-12T20:09:49.085Z,22.13
2022-09-12T20:12:53.652Z,22.13
2022-09-12T20:16:06.838Z,22.53
2022-09-12T20:19:12.283Z,21.96
2022-09-12T20:22:16.762Z,22.12
2022-09-12T20:25:21.181Z,22.21
2022-09-12T20:28:24.503Z,22.17
2022-09-12T20:31:30.590Z,22.17
2022-09-12T20:34:40.111Z,22.02
2022-09-12T20:37:43.725Z,21.80
2022-09-12T20:40:49.980Z,22.13
2022-09-12T20:43:55.153Z,22.11
2022-09-12T20:47:00.709Z,22.11
2022-09-12T20:50:04.776Z,21.84
2022-09-12T20:53:09.079Z,22.09
2022-09-12T20:56:12.590Z,21.82
2022-09-12T20:59:15.763Z,21.71
2022-09-12T21:02:20.467Z,21.89
2022-09-12T21:05:24.299Z,21.74
2022-09-12T21:08:28.548Z,22.11
2022-09-12T21:11:31.997Z,21.46
2022-09-12T21:14:35.165Z,21.63
2022-09-12T21:17:40.078Z,21.76
2022-09-12T21:20:43.989Z,21.50
2022-09-12T21:23:48.120Z,21.41
2022-09-12T21:26:51.388Z,21.38
2022-09-12T21:29:56.647Z,21.21
2022-09-12T21:33:02.323Z,21.02
2022-09-12T21:36:07.933Z,21.39
2022-09-12T21:39:11.554Z,21.43
2022-09-12T21:42:14.697Z,21.27
2022-09-12T21:45:18.599Z,21.21
2022-09-12T21:48:23.273Z,21.35
2022-09-12T21:51:26.587Z,21.20
2022-09-12T21:54:29.873Z,21.17
2022-09-12T21:57:33.444Z,21.24
2022-09-12T22:00:36.947Z,21.24
2022-09-12T22:03:43.117Z,21.30
2022-09-12T22:06:46.415Z,21.01
2022-09-12T22:09:49.649Z,20.89
2022-09-12T22:12:52.847Z,21.22
2022-09-12T22:15:56.244Z,20.92
2022-09-12T22:19:00.850Z,20.86
2022-09-12T22:22:21.719Z,20.81
2022-09-12T22:25:26.010Z,20.80
2022-09-12T22:28:31.919Z,20.67
2022-09-12T22:31:35.139Z,20.73
2022-09-12T22:34:39.792Z,20.88
2022-09-12T22:37:43.506Z,21.11
2022-09-12T22:40:46.662Z,21.11
2022-09-12T22:43:50.243Z,20.91
2022-09-12T22:46:53.429Z,20.93
2022-09-12T22:49:58.175Z,20.74
2022-09-12T22:53:01.423Z,20.79
2022-09-12T22:56:06.643Z,20.88
2022-09-12T22:59:10.554Z,20.72
2022-09-12T23:02:13.750Z,20.75
2022-09-12T23:05:18.391Z,20.82
2022-09-12T23:08:21.585Z,20.72
2022-09-12T23:11:25.116Z,20.49
2022-09-12T23:14:28.339Z,20.70
2022-09-12T23:17:31.636Z,20.56
2022-09-12T23:20:36.264Z,20.68
2022-09-12T23:23:39.687Z,20.64
2022-09-12T23:26:42.977Z,20.62
2022-09-12T23:29:46.129Z,20.40
2022-09-12T23:32:49.978Z,20.24
2022-09-12T23:35:54.633Z,20.37
2022-09-12T23:38:58.307Z,20.28
2022-09-12T23:42:01.545Z,20.18
2022-09-12T23:45:05.358Z,19.99
2022-09-12T23:48:09.019Z,20.19
2022-09-12T23:51:14.067Z,20.33
2022-09-12T23:54:17.533Z,20.05
2022-09-12T23:57:20.736Z,20.00
